Time;durP1;ratioP1;P1;durP2;ratioP2;P2;SDS_P1;SDS_P2;PMS_P1;PMS_P2;Temp;Humidity;BMP_temperature;BMP_pressure;BME280_temperature;BME280_humidity;BME280_pressure;Samples;Min_cycle;Max_cycle;Signal;HPM_P1;HPM_P2
2022/05/25 00:02:57;;;;;;;5.00;0.93;;;15.50;99.90;;;;;;6982248;28;20059;-78
2022/05/25 00:06:19;;;;;;;3.05;0.82;;;15.70;99.90;;;;;;6997734;28;20060;-77
2022/05/25 00:09:41;;;;;;;3.72;0.88;;;15.60;99.90;;;;;;6968480;28;20482;-78
2022/05/25 00:13:05;;;;;;;3.57;1.13;;;15.50;99.90;;;;;;6997218;28;20056;-78
2022/05/25 00:16:28;;;;;;;1.52;0.80;;;15.60;99.90;;;;;;6997423;28;20311;-79
2022/05/25 00:20:02;;;;;;;2.45;0.95;;;15.60;99.90;;;;;;6997104;28;20402;-78
2022/05/25 00:23:24;;;;;;;3.90;0.80;;;15.70;99.90;;;;;;6996615;28;20041;-78
2022/05/25 00:26:46;;;;;;;4.63;0.93;;;15.70;99.90;;;;;;6979975;28;20053;-79
2022/05/25 00:30:12;;;;;;;2.37;0.90;;;15.70;99.90;;;;;;6996563;28;20084;-78
2022/05/25 00:33:34;;;;;;;3.72;0.90;;;15.70;99.90;;;;;;6997117;28;20057;-77
2022/05/25 00:36:57;;;;;;;3.23;1.07;;;15.70;99.90;;;;;;6993133;28;20060;-78
2022/05/25 00:40:22;;;;;;;2.72;0.93;;;15.70;99.90;;;;;;6951838;28;20060;-79
2022/05/25 00:43:44;;;;;;;3.75;1.40;;;15.70;99.90;;;;;;6969358;28;20541;-77
2022/05/25 00:47:10;;;;;;;3.93;0.90;;;15.60;99.90;;;;;;6958419;28;20036;-79
2022/05/25 00:51:12;;;;;;;2.28;0.90;;;15.60;99.90;;;;;;6990741;28;20319;-78
2022/05/25 00:54:21;;;;;;;3.50;1.10;;;15.70;99.90;;;;;;6969743;28;20041;-78
2022/05/25 00:57:47;;;;;;;3.30;1.13;;;15.70;99.90;;;;;;6985386;28;20040;-78
2022/05/25 01:01:10;;;;;;;2.60;0.98;;;15.80;99.90;;;;;;6996850;28;20048;-79
2022/05/25 01:04:33;;;;;;;2.75;0.82;;;15.90;99.90;;;;;;6979524;28;20053;-78
2022/05/25 01:08:18;;;;;;;3.00;0.90;;;15.80;99.90;;;;;;6977940;28;20052;-78
2022/05/25 01:11:57;;;;;;;3.17;0.80;;;15.80;99.90;;;;;;6997033;28;20048;-78
2022/05/25 01:15:26;;;;;;;3.35;1.15;;;15.70;99.90;;;;;;6972986;28;20056;-78
2022/05/25 01:18:55;;;;;;;4.05;1.10;;;15.40;99.90;;;;;;6993391;28;20049;-77
2022/05/25 01:22:50;;;;;;;4.50;1.15;;;15.40;99.90;;;;;;7001549;28;20048;-78
2022/05/25 01:26:47;;;;;;;3.90;1.00;;;15.40;99.90;;;;;;6996897;28;20048;-78
2022/05/25 01:30:34;;;;;;;4.20;1.10;;;15.40;99.90;;;;;;6992757;28;20045;-76
2022/05/25 01:34:03;;;;;;;2.88;0.90;;;15.50;99.90;;;;;;6974051;28;20049;-77
2022/05/25 01:37:34;;;;;;;4.82;1.10;;;15.50;99.90;;;;;;6974254;28;20049;-78
2022/05/25 01:41:02;;;;;;;2.85;0.77;;;15.60;99.90;;;;;;6974121;28;20044;-77
2022/05/25 01:44:30;;;;;;;4.45;0.90;;;15.60;99.90;;;;;;6973902;28;20048;-78
2022/05/25 01:47:55;;;;;;;3.83;0.95;;;15.60;99.90;;;;;;6988959;28;20063;-79
2022/05/25 01:51:22;;;;;;;3.95;1.70;;;15.60;99.90;;;;;;7001495;28;20584;-79
2022/05/25 01:54:51;;;;;;;2.80;1.00;;;15.60;99.90;;;;;;7000588;28;20040;-78
2022/05/25 01:58:16;;;;;;;4.95;1.10;;;15.60;99.90;;;;;;6980965;28;20053;-78
2022/05/25 02:01:49;;;;;;;2.92;1.00;;;15.70;99.90;;;;;;6973042;28;20082;-79
2022/05/25 02:05:16;;;;;;;4.63;1.00;;;15.60;99.90;;;;;;6999022;28;20048;-78
2022/05/25 02:08:46;;;;;;;3.03;1.10;;;15.70;99.90;;;;;;6988059;28;20414;-78
2022/05/25 02:12:28;;;;;;;4.88;1.10;;;15.70;99.90;;;;;;7000234;28;20044;-79
2022/05/25 02:16:04;;;;;;;4.65;1.30;;;15.80;99.90;;;;;;6985036;28;20045;-79
2022/05/25 02:19:36;;;;;;;4.40;1.42;;;15.70;99.90;;;;;;6972645;28;20045;-77
2022/05/25 02:23:05;;;;;;;2.95;1.00;;;15.70;99.90;;;;;;6972820;28;20045;-78
2022/05/25 02:26:33;;;;;;;2.63;1.17;;;15.60;99.90;;;;;;6974969;28;20421;-79
2022/05/25 02:30:03;;;;;;;3.22;1.70;;;15.70;99.90;;;;;;6999841;28;20055;-77
2022/05/25 02:33:29;;;;;;;4.07;1.30;;;15.70;99.90;;;;;;6971643;28;20052;-77
2022/05/25 02:36:54;;;;;;;3.17;1.10;;;15.70;99.90;;;;;;6977971;28;20048;-79
2022/05/25 02:40:19;;;;;;;3.63;1.00;;;15.70;99.90;;;;;;6999676;28;20047;-78
2022/05/25 02:43:41;;;;;;;2.85;1.08;;;15.70;99.90;;;;;;6999328;28;20540;-77
2022/05/25 02:47:04;;;;;;;2.67;1.00;;;15.70;99.90;;;;;;6989354;28;20052;-78
2022/05/25 02:50:26;;;;;;;;;;;15.60;99.90;;;;;;6972062;28;20045;-79
2022/05/25 02:53:48;;;;;;;3.35;1.20;;;15.50;99.90;;;;;;6989022;28;19924;-77
2022/05/25 02:57:12;;;;;;;3.07;1.00;;;15.40;99.90;;;;;;6994583;28;20041;-78
2022/05/25 03:00:34;;;;;;;3.63;1.33;;;15.30;99.90;;;;;;6980884;28;20306;-79
2022/05/25 03:03:56;;;;;;;4.23;1.10;;;15.30;99.90;;;;;;7000531;28;20049;-77
2022/05/25 03:07:19;;;;;;;2.67;1.10;;;15.20;99.90;;;;;;6995964;28;20071;-80
2022/05/25 03:10:41;;;;;;;3.42;1.10;;;15.20;99.90;;;;;;6998705;28;20040;-80
2022/05/25 03:14:06;;;;;;;3.97;1.20;;;15.10;99.90;;;;;;6998951;28;20059;-79
2022/05/25 03:17:29;;;;;;;3.60;1.30;;;15.00;99.90;;;;;;6983098;28;20053;-78
2022/05/25 03:20:51;;;;;;;3.33;1.40;;;15.00;99.90;;;;;;6975189;28;20059;-79
2022/05/25 03:24:14;;;;;;;3.47;1.10;;;15.00;99.90;;;;;;6998322;28;20055;-77
2022/05/25 03:27:36;;;;;;;6.50;1.20;;;15.10;99.90;;;;;;6982403;28;20120;-78
2022/05/25 03:31:00;;;;;;;2.60;1.10;;;15.20;99.90;;;;;;6971303;28;20140;-78
2022/05/25 03:34:22;;;;;;;2.58;1.02;;;15.20;99.90;;;;;;6970450;28;20418;-76
2022/05/25 03:37:45;;;;;;;3.58;1.15;;;15.20;99.90;;;;;;6987315;28;20048;-79
2022/05/25 03:41:08;;;;;;;2.60;1.10;;;15.30;99.90;;;;;;6996716;28;20044;-77
2022/05/25 03:44:30;;;;;;;4.68;1.27;;;15.30;99.90;;;;;;6997808;28;20131;-78
2022/05/25 03:47:53;;;;;;;3.17;1.00;;;15.30;99.90;;;;;;6975834;28;20053;-79
2022/05/25 03:51:15;;;;;;;3.60;1.30;;;15.30;99.90;;;;;;6970277;28;20052;-78
2022/05/25 03:54:38;;;;;;;2.33;1.07;;;15.30;99.90;;;;;;6995948;28;20048;-78
2022/05/25 03:58:00;;;;;;;3.42;0.90;;;15.30;99.90;;;;;;6975375;28;20049;-78
2022/05/25 04:01:23;;;;;;;4.27;1.33;;;15.40;99.90;;;;;;6970370;28;20049;-78
2022/05/25 04:04:46;;;;;;;2.13;0.90;;;15.40;99.90;;;;;;6978712;28;20044;-78
2022/05/25 04:08:09;;;;;;;3.40;1.23;;;15.40;99.90;;;;;;6997607;28;20056;-80
2022/05/25 04:11:31;;;;;;;4.80;1.20;;;15.40;99.90;;;;;;6997635;28;20045;-79
2022/05/25 04:14:53;;;;;;;4.67;1.17;;;15.30;99.90;;;;;;6976745;28;20056;-79
2022/05/25 04:18:16;;;;;;;5.23;1.43;;;15.30;99.90;;;;;;6970054;28;20053;-77
2022/05/25 04:21:39;;;;;;;;;;;15.20;99.90;;;;;;6970321;28;20049;-77
2022/05/25 04:25:02;;;;;;;6.57;1.17;;;15.20;99.90;;;;;;6978329;28;19920;-78
2022/05/25 04:28:24;;;;;;;3.38;1.02;;;15.30;99.90;;;;;;6996164;28;20049;-77
2022/05/25 04:31:46;;;;;;;3.40;1.30;;;15.30;99.90;;;;;;6980354;28;20048;-79
2022/05/25 04:35:10;;;;;;;2.83;1.00;;;15.30;99.90;;;;;;6997405;28;20056;-78
2022/05/25 04:38:33;;;;;;;3.33;1.10;;;15.40;99.90;;;;;;6997181;28;20049;-79
2022/05/25 04:41:56;;;;;;;3.25;1.15;;;15.40;99.90;;;;;;6997369;28;20052;-78
2022/05/25 04:45:19;;;;;;;5.63;1.52;;;15.30;99.90;;;;;;6997274;28;20044;-77
2022/05/25 04:48:41;;;;;;;;;;;15.40;99.90;;;;;;6997511;28;20052;-76
2022/05/25 04:52:04;;;;;;;5.30;1.10;;;15.40;99.90;;;;;;7000492;28;20278;-77
2022/05/25 04:59:07;;;;;;;2.20;1.00;;;15.40;99.90;;;;;;7002227;28;20060;-78
2022/05/25 05:02:30;;;;;;;2.83;0.90;;;15.40;99.90;;;;;;7002187;28;20052;-79
2022/05/25 05:05:53;;;;;;;;;;;15.50;99.90;;;;;;7002461;28;20438;-78
2022/05/25 05:09:15;;;;;;;3.95;1.02;;;15.40;99.90;;;;;;7001725;28;19924;-78
2022/05/25 05:12:39;;;;;;;2.05;0.88;;;15.60;99.90;;;;;;7002037;28;20142;-78
2022/05/25 05:16:07;;;;;;;2.95;0.90;;;15.50;99.90;;;;;;6983938;28;20401;-78
2022/05/25 05:19:30;;;;;;;3.80;1.00;;;15.50;99.90;;;;;;7001625;28;20048;-79
2022/05/25 05:22:52;;;;;;;3.92;1.17;;;15.30;99.90;;;;;;7001814;28;20044;-78
2022/05/25 05:26:14;;;;;;;5.20;1.30;;;15.20;99.90;;;;;;6983541;28;20057;-78
2022/05/25 05:29:38;;;;;;;4.03;1.08;;;15.20;99.90;;;;;;7001645;28;20040;-78
2022/05/25 05:33:00;;;;;;;3.60;1.00;;;15.10;99.90;;;;;;7001341;28;20051;-78
2022/05/25 05:36:27;;;;;;;4.80;1.25;;;15.10;99.90;;;;;;6983551;28;20040;-78
2022/05/25 05:39:54;;;;;;;3.88;1.40;;;15.00;99.90;;;;;;7001372;28;20040;-76
2022/05/25 05:43:16;;;;;;;3.63;1.00;;;14.90;99.90;;;;;;7001346;28;20082;-78
2022/05/25 05:46:41;;;;;;;3.70;1.30;;;15.00;99.90;;;;;;7001298;28;20059;-79
2022/05/25 05:50:06;;;;;;;2.88;1.05;;;15.10;99.90;;;;;;6984017;28;20051;-78
2022/05/25 05:53:29;;;;;;;4.22;1.27;;;15.20;99.90;;;;;;7001281;28;20048;-79
2022/05/25 05:56:51;;;;;;;4.63;1.35;;;15.40;99.90;;;;;;6983251;28;20040;-78
2022/05/25 06:00:16;;;;;;;5.30;2.00;;;15.50;99.90;;;;;;7000859;28;20486;-78
2022/05/25 06:03:39;;;;;;;4.72;1.40;;;15.60;99.90;;;;;;7000220;28;20540;-78
2022/05/25 06:07:03;;;;;;;3.15;1.30;;;15.60;99.90;;;;;;7000793;28;20052;-78
2022/05/25 06:10:25;;;;;;;2.80;1.20;;;15.50;99.90;;;;;;7001055;28;20060;-78
2022/05/25 06:13:48;;;;;;;3.07;1.20;;;15.60;99.90;;;;;;7001004;28;20056;-78
2022/05/25 06:20:51;;;;;;;3.83;0.90;;;15.50;95.40;;;;;;7000219;28;20053;-78
2022/05/25 06:24:13;;;;;;;4.28;1.00;;;15.50;96.90;;;;;;7000610;28;20406;-78
2022/05/25 06:27:36;;;;;;;2.53;0.77;;;15.50;96.50;;;;;;7000197;28;20053;-78
2022/05/25 06:30:58;;;;;;;2.20;0.70;;;15.50;95.30;;;;;;6966362;28;20049;-79
2022/05/25 06:34:20;;;;;;;5.70;1.20;;;15.60;96.40;;;;;;7002665;28;20052;-80
2022/05/25 06:37:44;;;;;;;2.88;0.90;;;15.70;98.20;;;;;;6999804;28;20041;-77
2022/05/25 06:41:06;;;;;;;2.40;1.00;;;15.90;98.90;;;;;;6999586;28;20048;-78
2022/05/25 06:44:28;;;;;;;4.47;1.13;;;16.00;98.20;;;;;;7000113;28;20115;-77
2022/05/25 06:47:50;;;;;;;4.90;1.00;;;16.00;98.10;;;;;;6999446;28;20410;-78
2022/05/25 06:51:13;;;;;;;4.30;0.90;;;16.10;95.90;;;;;;6999317;28;20048;-78
2022/05/25 06:54:37;;;;;;;2.67;0.88;;;16.10;95.10;;;;;;6999780;28;20049;-78
2022/05/25 06:57:59;;;;;;;3.47;1.00;;;16.30;94.90;;;;;;6999813;28;20505;-78
2022/05/25 07:01:23;;;;;;;1.93;0.80;;;16.50;94.50;;;;;;7003802;28;20053;-78
2022/05/25 07:04:45;;;;;;;2.20;0.90;;;16.40;93.30;;;;;;7000992;28;20045;-79
2022/05/25 07:08:08;;;;;;;2.97;1.10;;;16.40;92.90;;;;;;7000036;28;20048;-79
2022/05/25 07:11:31;;;;;;;2.50;0.90;;;16.50;93.30;;;;;;7000065;28;20440;-78
2022/05/25 07:14:53;;;;;;;2.58;0.90;;;16.40;92.70;;;;;;6998324;28;20053;-77
2022/05/25 07:18:15;;;;;;;2.57;0.73;;;16.40;93.10;;;;;;6999102;28;20497;-77
2022/05/25 07:21:37;;;;;;;2.95;0.80;;;16.40;93.10;;;;;;6998750;28;20054;-78
2022/05/25 07:25:00;;;;;;;3.07;1.10;;;16.40;92.50;;;;;;6998490;28;20405;-78
2022/05/25 07:28:23;;;;;;;3.83;1.08;;;16.20;92.80;;;;;;6981927;28;20052;-80
2022/05/25 07:31:52;;;;;;;4.25;0.85;;;16.20;92.90;;;;;;6998730;28;20049;-79
2022/05/25 07:35:17;;;;;;;3.80;0.90;;;16.10;92.30;;;;;;6998506;28;20055;-78
2022/05/25 07:38:45;;;;;;;3.05;1.08;;;16.00;92.60;;;;;;6980249;28;20139;-78
2022/05/25 07:42:10;;;;;;;3.63;0.90;;;16.10;92.80;;;;;;6998170;28;20055;-78
2022/05/25 07:45:35;;;;;;;2.97;0.82;;;16.10;93.10;;;;;;6998277;28;20174;-77
2022/05/25 07:48:57;;;;;;;3.15;1.10;;;16.30;93.50;;;;;;6998382;28;20060;-77
2022/05/25 07:52:21;;;;;;;2.58;1.10;;;16.20;92.90;;;;;;6998399;28;20052;-78
2022/05/25 07:55:43;;;;;;;2.85;1.00;;;16.20;92.90;;;;;;6998592;28;20055;-78
2022/05/25 07:59:09;;;;;;;3.50;1.00;;;16.20;92.20;;;;;;6998537;28;20048;-78
2022/05/25 08:06:17;;;;;;;2.58;1.00;;;16.30;92.10;;;;;;6998222;28;20048;-78
2022/05/25 08:09:39;;;;;;;1.80;0.80;;;16.40;92.70;;;;;;6997853;28;20049;-78
2022/05/25 08:13:03;;;;;;;1.85;0.80;;;16.50;91.60;;;;;;6997688;28;20045;-78
2022/05/25 08:16:25;;;;;;;2.72;0.70;;;16.60;91.90;;;;;;6998426;28;20040;-79
2022/05/25 08:19:49;;;;;;;2.78;0.80;;;16.70;91.90;;;;;;6998662;28;20522;-78
2022/05/25 08:23:16;;;;;;;2.50;0.80;;;16.70;90.60;;;;;;6998861;28;20052;-79
2022/05/25 08:26:38;;;;;;;3.40;1.10;;;16.60;89.00;;;;;;7009542;28;20048;-78
2022/05/25 08:30:00;;;;;;;2.27;0.90;;;16.70;88.90;;;;;;7005325;28;20048;-78
2022/05/25 08:33:24;;;;;;;5.57;1.10;;;16.80;90.00;;;;;;7003353;28;20398;-78
2022/05/25 08:36:47;;;;;;;2.13;0.70;;;17.00;90.00;;;;;;7003547;28;20048;-76
2022/05/25 08:40:14;;;;;;;1.98;0.80;;;17.10;89.10;;;;;;7002917;28;20454;-78
2022/05/25 08:43:45;;;;;;;2.47;0.70;;;17.10;86.30;;;;;;7003359;28;20055;-77
2022/05/25 08:47:10;;;;;;;5.28;0.90;;;17.10;84.80;;;;;;7003051;28;20052;-78
2022/05/25 08:50:33;;;;;;;3.17;0.95;;;17.10;81.70;;;;;;7002794;28;20493;-78
2022/05/25 08:53:59;;;;;;;5.10;0.80;;;17.10;81.90;;;;;;7002709;28;20402;-77
2022/05/25 08:57:26;;;;;;;3.80;0.80;;;17.20;83.10;;;;;;7002890;28;20044;-77
2022/05/25 09:00:51;;;;;;;6.53;0.90;;;17.40;82.50;;;;;;7002524;28;20071;-78
2022/05/25 09:04:33;;;;;;;3.95;0.90;;;17.50;81.80;;;;;;7002882;28;20052;-79
2022/05/25 09:08:07;;;;;;;3.53;0.90;;;17.60;80.70;;;;;;7002406;28;20055;-77
2022/05/25 09:11:40;;;;;;;3.05;0.93;;;17.90;79.00;;;;;;6985134;28;20402;-77
2022/05/25 09:15:07;;;;;;;1.50;0.70;;;18.00;81.90;;;;;;6984543;28;20498;-78
2022/05/25 09:18:34;;;;;;;1.98;0.80;;;18.00;80.90;;;;;;7002915;28;20052;-77
2022/05/25 09:22:00;;;;;;;4.63;0.80;;;17.90;79.20;;;;;;7001864;28;20049;-78
2022/05/25 09:25:22;;;;;;;3.72;0.80;;;17.70;80.60;;;;;;7002672;28;20478;-78
2022/05/25 09:28:50;;;;;;;3.88;0.90;;;17.90;79.30;;;;;;7002137;28;20041;-78
2022/05/25 09:32:37;;;;;;;1.85;0.60;;;17.90;78.80;;;;;;7001749;28;20044;-76
2022/05/25 09:36:05;;;;;;;2.92;0.75;;;18.00;78.80;;;;;;7001325;28;20398;-78
2022/05/25 09:39:33;;;;;;;3.75;0.85;;;18.10;79.90;;;;;;7001986;28;20429;-77
2022/05/25 09:42:58;;;;;;;3.28;0.70;;;18.00;78.00;;;;;;7001809;28;20131;-76
2022/05/25 09:46:26;;;;;;;2.53;1.13;;;18.20;79.20;;;;;;7002400;28;20098;-78
2022/05/25 09:49:50;;;;;;;2.13;0.70;;;18.30;77.30;;;;;;7001592;28;20056;-77
2022/05/25 09:53:17;;;;;;;4.07;0.85;;;18.40;76.90;;;;;;7001122;28;20053;-78
2022/05/25 09:56:44;;;;;;;2.28;0.73;;;18.30;79.30;;;;;;7001322;28;20062;-79
2022/05/25 10:00:18;;;;;;;3.58;0.95;;;18.50;76.70;;;;;;6987065;28;20056;-77
2022/05/25 10:03:45;;;;;;;2.25;0.70;;;18.60;75.20;;;;;;7003102;28;20048;-77
2022/05/25 10:07:20;;;;;;;4.43;1.00;;;18.70;75.00;;;;;;7001754;28;20487;-79
2022/05/25 10:10:52;;;;;;;2.85;0.60;;;18.90;75.80;;;;;;7001832;28;20501;-78
2022/05/25 10:14:27;;;;;;;3.03;0.60;;;19.10;74.50;;;;;;7001592;28;20486;-78
2022/05/25 10:17:49;;;;;;;5.13;1.02;;;19.40;73.50;;;;;;7001740;28;20048;-78
2022/05/25 10:21:26;;;;;;;1.98;0.80;;;19.40;72.40;;;;;;7001585;28;20387;-78
2022/05/25 10:25:00;;;;;;;4.63;1.00;;;19.60;70.90;;;;;;7000753;28;20479;-78
2022/05/25 10:28:27;;;;;;;3.05;0.60;;;19.70;70.10;;;;;;7000266;28;20089;-76
2022/05/25 10:39:24;;;;;;;4.35;0.85;;;19.60;68.90;;;;;;7000086;28;20044;-77
2022/05/25 10:42:46;;;;;;;2.08;0.70;;;19.90;69.80;;;;;;7000211;28;20498;-78
2022/05/25 10:46:08;;;;;;;;;;;20.00;68.40;;;;;;7001042;28;20421;-79
2022/05/25 10:49:34;;;;;;;;;;;20.00;69.90;;;;;;6999445;28;19924;-78
2022/05/25 10:53:03;;;;;;;3.03;0.65;;;19.90;68.10;;;;;;6982157;28;19988;-76
2022/05/25 10:56:41;;;;;;;2.75;0.70;;;20.00;68.40;;;;;;6999735;28;20051;-78
2022/05/25 11:00:10;;;;;;;3.53;0.80;;;19.90;67.60;;;;;;6999577;28;20505;-77
2022/05/25 11:03:53;;;;;;;3.05;0.80;;;19.90;67.70;;;;;;6998804;28;20072;-78
2022/05/25 11:07:27;;;;;;;3.38;0.70;;;20.00;67.70;;;;;;6998838;28;20044;-78
2022/05/25 11:10:55;;;;;;;3.20;0.95;;;20.20;68.10;;;;;;6999302;28;20052;-78
2022/05/25 11:14:52;;;;;;;5.40;1.15;;;20.20;69.10;;;;;;6980562;28;20045;-78
2022/05/25 11:18:37;;;;;;;3.47;0.90;;;20.20;70.70;;;;;;6980982;28;20411;-78
2022/05/25 11:22:19;;;;;;;3.17;0.90;;;20.00;70.00;;;;;;6998451;28;20395;-80
2022/05/25 11:26:10;;;;;;;2.35;0.70;;;20.00;69.30;;;;;;6998895;28;20067;-79
2022/05/25 11:29:56;;;;;;;5.40;0.90;;;20.10;68.90;;;;;;7003173;28;20048;-77
2022/05/25 11:33:46;;;;;;;1.83;0.63;;;20.30;68.00;;;;;;6998895;28;20410;-76
2022/05/25 11:37:25;;;;;;;4.45;0.80;;;20.40;68.10;;;;;;6981005;28;20142;-77
2022/05/25 11:41:01;;;;;;;5.13;0.88;;;20.70;66.80;;;;;;6998519;28;20592;-78
2022/05/25 11:45:07;;;;;;;2.72;0.68;;;20.50;67.50;;;;;;6998717;28;20051;-79
2022/05/25 11:48:53;;;;;;;3.83;0.90;;;20.60;67.60;;;;;;6961300;28;20056;-77
2022/05/25 11:53:00;;;;;;;4.47;0.80;;;20.60;68.70;;;;;;6998399;28;20048;-77
2022/05/25 11:56:43;;;;;;;3.38;0.90;;;20.40;66.20;;;;;;6980282;28;20056;-79
2022/05/25 12:00:39;;;;;;;3.03;0.77;;;20.30;68.00;;;;;;6997727;28;20045;-78
2022/05/25 12:04:45;;;;;;;2.63;0.70;;;20.20;68.30;;;;;;6994382;28;20063;-79
2022/05/25 12:08:25;;;;;;;2.95;0.70;;;20.30;66.10;;;;;;6995452;28;20053;-78
2022/05/25 12:11:57;;;;;;;2.40;0.70;;;20.60;69.20;;;;;;6997553;28;20509;-78
2022/05/25 12:15:24;;;;;;;3.00;0.75;;;20.70;67.50;;;;;;6997577;28;20482;-78
2022/05/25 12:19:03;;;;;;;3.13;0.90;;;21.00;66.30;;;;;;6997436;28;20410;-78
2022/05/25 12:22:33;;;;;;;2.17;0.77;;;21.00;64.60;;;;;;6997527;28;20479;-77
2022/05/25 12:25:58;;;;;;;2.30;0.70;;;21.40;61.40;;;;;;6997437;28;20053;-78
2022/05/25 12:29:26;;;;;;;2.55;0.60;;;21.40;62.10;;;;;;6997325;28;20445;-78
2022/05/25 12:32:48;;;;;;;1.65;0.68;;;21.20;61.50;;;;;;6997349;28;20047;-77
2022/05/25 12:36:12;;;;;;;3.15;0.80;;;21.20;61.70;;;;;;6997271;28;20063;-78
2022/05/25 12:40:00;;;;;;;4.78;0.85;;;21.30;61.30;;;;;;6997044;28;20044;-77
2022/05/25 12:51:39;;;;;;;2.95;0.80;;;21.70;57.40;;;;;;6997066;28;20298;-79
2022/05/25 12:55:07;;;;;;;2.92;1.20;;;21.80;58.40;;;;;;6996821;28;20045;-78
2022/05/25 12:58:42;;;;;;;2.58;0.68;;;22.00;59.30;;;;;;6996857;28;20573;-77
2022/05/25 13:02:26;;;;;;;1.40;0.60;;;22.20;58.30;;;;;;6996940;28;20048;-78
2022/05/25 13:05:57;;;;;;;3.20;0.82;;;22.50;60.10;;;;;;6996795;28;20049;-78
2022/05/25 13:09:40;;;;;;;5.03;1.05;;;22.50;58.00;;;;;;6996714;28;20053;-77
2022/05/25 13:13:26;;;;;;;3.53;0.95;;;22.40;56.70;;;;;;6999572;28;20045;-78
2022/05/25 13:16:57;;;;;;;3.83;0.60;;;22.40;57.20;;;;;;7001726;28;20048;-78
2022/05/25 13:21:00;;;;;;;1.63;0.70;;;22.50;56.90;;;;;;7001960;28;20494;-77
2022/05/25 13:24:57;;;;;;;1.52;0.60;;;22.10;56.10;;;;;;7001232;28;20410;-76
2022/05/25 13:28:30;;;;;;;2.55;0.60;;;22.00;56.70;;;;;;6966865;28;20048;-78
2022/05/25 13:32:00;;;;;;;2.78;0.50;;;22.30;58.00;;;;;;7001302;28;20071;-78
2022/05/25 13:35:47;;;;;;;3.42;0.85;;;22.60;57.40;;;;;;7001232;28;20044;-78
2022/05/25 13:39:16;;;;;;;2.80;0.57;;;22.80;55.70;;;;;;6952538;28;20094;-77
2022/05/25 13:42:45;;;;;;;1.98;0.60;;;23.00;54.90;;;;;;7001367;28;20478;-78
2022/05/25 13:46:13;;;;;;;2.33;0.70;;;23.10;54.50;;;;;;7000975;28;20051;-78
2022/05/25 13:49:43;;;;;;;2.30;0.60;;;23.10;54.20;;;;;;6982965;28;20402;-78
2022/05/25 13:53:09;;;;;;;2.28;0.70;;;23.20;53.70;;;;;;7000707;28;20051;-76
2022/05/25 13:56:32;;;;;;;1.55;0.60;;;23.10;54.00;;;;;;7000657;28;20078;-77
2022/05/25 13:59:57;;;;;;;2.63;0.70;;;22.80;55.00;;;;;;7003369;28;20051;-79
2022/05/25 14:03:28;;;;;;;2.03;0.70;;;22.60;55.00;;;;;;7005590;28;20063;-78
2022/05/25 14:06:51;;;;;;;1.60;0.55;;;22.60;55.60;;;;;;7003630;28;20049;-78
2022/05/25 14:14:01;;;;;;;3.25;0.70;;;22.60;53.10;;;;;;7002117;28;20049;-77
2022/05/25 14:17:27;;;;;;;3.47;0.65;;;22.60;54.00;;;;;;7000260;28;20055;-78
2022/05/25 14:20:49;;;;;;;2.33;0.70;;;22.60;54.90;;;;;;7000398;28;20495;-78
2022/05/25 14:24:15;;;;;;;2.33;0.60;;;22.60;54.50;;;;;;6999997;28;20482;-78
2022/05/25 14:27:40;;;;;;;1.42;0.50;;;22.90;54.10;;;;;;7000093;28;20494;-78
2022/05/25 14:31:03;;;;;;;2.35;0.70;;;23.50;55.20;;;;;;6999674;28;20044;-77
2022/05/25 14:34:28;;;;;;;3.20;0.63;;;23.90;54.60;;;;;;6999511;28;20044;-78
2022/05/25 14:37:51;;;;;;;3.72;0.65;;;24.00;52.20;;;;;;6982668;28;20056;-76
2022/05/25 14:41:28;;;;;;;2.10;0.60;;;23.80;51.80;;;;;;6992878;28;20044;-78
2022/05/25 14:44:53;;;;;;;5.05;1.77;;;23.50;52.00;;;;;;6971722;28;20426;-78
2022/05/25 14:48:25;;;;;;;1.48;0.65;;;23.80;50.60;;;;;;6971605;28;20120;-76
2022/05/25 14:51:48;;;;;;;2.88;0.90;;;24.50;50.30;;;;;;6971621;28;20041;-77
2022/05/25 14:55:25;;;;;;;2.38;0.70;;;25.10;50.90;;;;;;6978123;28;20049;-76
2022/05/25 14:58:52;;;;;;;1.90;0.60;;;24.70;49.90;;;;;;6985737;28;20044;-77
2022/05/25 15:02:26;;;;;;;3.15;0.82;;;24.50;52.00;;;;;;6989078;28;20056;-79
2022/05/25 15:05:49;;;;;;;2.10;0.60;;;24.10;51.10;;;;;;6985075;28;20087;-79
2022/05/25 15:09:25;;;;;;;2.13;0.60;;;23.80;51.30;;;;;;6976043;28;20057;-79
2022/05/25 15:12:49;;;;;;;1.55;0.70;;;24.40;49.60;;;;;;6983474;28;20072;-77
2022/05/25 15:19:57;;;;;;;2.80;0.50;;;25.10;48.30;;;;;;6970951;28;20053;-79
2022/05/25 15:23:26;;;;;;;1.88;0.65;;;25.20;47.60;;;;;;6946875;28;20049;-77
2022/05/25 15:26:58;;;;;;;2.28;0.80;;;25.80;47.30;;;;;;6974868;28;20053;-76
2022/05/25 15:30:27;;;;;;;2.00;0.70;;;26.10;48.20;;;;;;6979207;28;20080;-79
2022/05/25 15:33:49;;;;;;;2.75;0.70;;;25.60;49.90;;;;;;6983296;28;20053;-80
2022/05/25 15:37:21;;;;;;;3.10;0.80;;;25.30;49.40;;;;;;6990003;28;20055;-79
2022/05/25 15:40:45;;;;;;;7.18;1.58;;;25.20;50.10;;;;;;6977003;28;20040;-79
2022/05/25 15:44:09;;;;;;;2.97;0.73;;;25.00;48.60;;;;;;6982489;28;20045;-77
2022/05/25 15:47:31;;;;;;;2.22;0.60;;;24.50;49.60;;;;;;6972255;28;20056;-78
2022/05/25 15:50:54;;;;;;;4.00;0.88;;;24.70;49.00;;;;;;6997960;28;20052;-76
2022/05/25 15:54:21;;;;;;;2.92;0.80;;;24.60;49.00;;;;;;6971027;28;20499;-77
2022/05/25 15:57:44;;;;;;;3.88;0.90;;;24.60;48.90;;;;;;6969596;28;20045;-78
2022/05/25 16:01:09;;;;;;;2.15;0.57;;;24.60;49.00;;;;;;6979275;28;20052;-79
2022/05/25 16:04:35;;;;;;;2.72;0.70;;;24.40;50.30;;;;;;6979325;28;20395;-80
2022/05/25 16:11:45;;;;;;;3.92;0.80;;;24.00;49.60;;;;;;6987932;28;20119;-77
2022/05/25 16:15:09;;;;;;;3.80;0.73;;;23.80;50.30;;;;;;6968531;28;20068;-78
2022/05/25 16:18:33;;;;;;;3.17;0.73;;;24.10;50.70;;;;;;6972547;28;20114;-77
2022/05/25 16:21:55;;;;;;;2.83;0.70;;;24.80;50.30;;;;;;6974775;28;20097;-78
2022/05/25 16:25:20;;;;;;;5.05;0.63;;;25.10;49.90;;;;;;6986734;28;20045;-79
2022/05/25 16:28:48;;;;;;;5.05;0.85;;;25.60;49.10;;;;;;6995560;28;20433;-77
2022/05/25 16:32:13;;;;;;;2.67;0.70;;;26.20;48.50;;;;;;6973326;28;20437;-80
2022/05/25 16:35:37;;;;;;;3.30;0.90;;;25.90;47.50;;;;;;6969615;28;20470;-82
2022/05/25 16:38:59;;;;;;;3.15;0.70;;;25.60;46.80;;;;;;6983591;28;20399;-77
2022/05/25 16:42:22;;;;;;;2.67;0.70;;;25.20;47.90;;;;;;6976315;28;20056;-79
2022/05/25 16:45:44;;;;;;;2.85;1.00;;;24.60;49.50;;;;;;6970214;28;20384;-77
2022/05/25 16:49:06;;;;;;;;;;;24.40;50.00;;;;;;6979423;28;20442;-78
2022/05/25 16:52:30;;;;;;;1.80;0.80;;;24.20;50.20;;;;;;6974413;28;20412;-77
2022/05/25 16:55:52;;;;;;;2.67;0.80;;;24.00;50.20;;;;;;6978851;28;20049;-78
2022/05/25 16:59:15;;;;;;;3.20;0.80;;;24.00;50.90;;;;;;6992521;28;20044;-82
2022/05/25 17:02:37;;;;;;;3.03;0.70;;;23.90;50.80;;;;;;6992738;28;20045;-77
2022/05/25 17:05:59;;;;;;;3.15;0.75;;;23.80;51.30;;;;;;6989297;28;20049;-76
2022/05/25 17:09:22;;;;;;;3.78;0.63;;;23.40;52.10;;;;;;6974985;28;20057;-78
2022/05/25 17:12:45;;;;;;;5.75;1.05;;;23.60;52.00;;;;;;6973437;28;20041;-77
2022/05/25 17:16:07;;;;;;;4.30;0.90;;;23.50;63.10;;;;;;6973197;28;20045;-77
2022/05/25 17:23:13;;;;;;;3.67;1.00;;;19.80;99.90;;;;;;6998867;28;19956;-78
2022/05/25 17:26:37;;;;;;;1.90;0.70;;;19.10;99.90;;;;;;6980269;28;20067;-77
2022/05/25 17:29:59;;;;;;;3.13;1.20;;;19.10;99.90;;;;;;6989106;28;20466;-80
2022/05/25 17:33:24;;;;;;;5.15;1.63;;;19.00;99.90;;;;;;6991969;28;20056;-79
2022/05/25 17:44:07;;;;;;;3.40;1.00;;;19.80;98.30;;;;;;6995398;28;20040;-77
2022/05/25 17:47:30;;;;;;;3.97;1.00;;;20.20;93.30;;;;;;6972471;28;20053;-77
2022/05/25 17:50:53;;;;;;;3.97;0.80;;;20.30;89.20;;;;;;6971888;28;20051;-79
2022/05/25 17:54:17;;;;;;;4.13;0.80;;;20.60;90.50;;;;;;6974270;28;20070;-79
2022/05/25 17:57:39;;;;;;;3.50;0.77;;;20.80;75.10;;;;;;6976829;28;20105;-78
2022/05/25 18:01:02;;;;;;;3.78;0.90;;;21.00;74.10;;;;;;6983637;28;20041;-79
2022/05/25 18:04:25;;;;;;;3.92;0.90;;;21.20;72.70;;;;;;6979350;28;20045;-78
2022/05/25 18:07:47;;;;;;;;;;;21.30;75.30;;;;;;6994891;28;20063;-79
2022/05/25 18:11:10;;;;;;;2.50;0.77;;;21.40;76.30;;;;;;6995883;28;20367;-78
2022/05/25 18:14:39;;;;;;;3.17;1.13;;;21.20;70.80;;;;;;6976741;28;20410;-77
2022/05/25 18:18:09;;;;;;;2.80;0.73;;;21.20;70.70;;;;;;6980347;28;20044;-78
2022/05/25 18:21:31;;;;;;;3.50;0.95;;;21.20;72.00;;;;;;6996162;28;20048;-79
2022/05/25 18:24:54;;;;;;;4.20;0.90;;;21.20;72.30;;;;;;6995736;28;20185;-79
2022/05/25 18:28:19;;;;;;;3.85;1.00;;;21.20;72.60;;;;;;6995755;28;20080;-80
2022/05/25 18:31:42;;;;;;;3.33;0.90;;;21.20;68.90;;;;;;6977626;28;20060;-79
2022/05/25 18:35:08;;;;;;;3.00;0.70;;;21.40;72.50;;;;;;6982135;28;20051;-78
2022/05/25 18:38:32;;;;;;;4.88;0.80;;;21.60;72.50;;;;;;6968688;28;20087;-78
2022/05/25 18:41:55;;;;;;;4.68;0.90;;;21.70;71.70;;;;;;6968621;28;20045;-79
2022/05/25 18:45:18;;;;;;;2.97;0.80;;;21.80;70.70;;;;;;6996009;28;20056;-78
2022/05/25 18:48:40;;;;;;;2.10;0.63;;;21.70;67.50;;;;;;6977515;28;20052;-77
2022/05/25 18:52:05;;;;;;;2.00;0.70;;;21.60;68.30;;;;;;6968379;28;20187;-77